Time;durP1;ratioP1;P1;durP2;ratioP2;P2;SDS_P1;SDS_P2;PMS_P1;PMS_P2;Temp;Humidity;BMP_temperature;BMP_pressure;BME280_temperature;BME280_humidity;BME280_pressure;Samples;Min_cycle;Max_cycle;Signal;HPM_P1;HPM_P2
2021/08/20 00:00:04;;;;;;;11.57;8.15;;;;;;;18.60;71.48;98893.44;2280168;78;20939;-78
2021/08/20 00:03:06;;;;;;;11.88;7.22;;;;;;;20.65;68.93;98892.64;2259549;78;21316;-79
2021/08/20 00:06:06;;;;;;;12.35;7.15;;;;;;;22.12;65.11;98890.39;2279973;78;20881;-79
2021/08/20 00:09:09;;;;;;;8.85;7.25;;;;;;;23.00;61.62;98891.72;2280092;78;20948;-80
2021/08/20 00:12:10;;;;;;;14.33;8.03;;;;;;;23.58;59.20;98891.31;2279876;78;21031;-79
2021/08/20 00:15:10;;;;;;;10.35;7.08;;;;;;;23.93;57.69;98885.41;2279890;78;20913;-79
2021/08/20 00:18:11;;;;;;;9.45;6.70;;;;;;;24.13;56.44;98891.24;2279470;78;20951;-78
2021/08/20 00:21:11;;;;;;;8.00;6.67;;;;;;;24.36;55.17;98889.86;2278986;78;20908;-78
2021/08/20 00:24:14;;;;;;;13.85;6.70;;;;;;;24.48;54.07;98884.92;2280299;78;20908;-79
2021/08/20 00:27:14;;;;;;;9.83;6.87;;;;;;;24.60;53.72;98887.05;2280042;78;20999;-79
2021/08/20 00:30:14;;;;;;;9.90;6.75;;;;;;;24.69;53.17;98885.30;2279649;78;20924;-80
2021/08/20 00:33:15;;;;;;;9.38;7.35;;;;;;;24.77;52.49;98884.02;2280459;78;20948;-80
2021/08/20 00:36:16;;;;;;;7.33;6.42;;;;;;;24.84;52.05;98887.28;2280454;78;20908;-79
2021/08/20 00:39:16;;;;;;;8.35;6.58;;;;;;;24.85;51.92;98884.14;2280292;78;20940;-79
2021/08/20 00:42:16;;;;;;;12.63;6.72;;;;;;;24.88;51.51;98883.53;2280540;78;21032;-80
2021/08/20 00:45:17;;;;;;;7.00;6.40;;;;;;;24.92;51.25;98884.27;2280695;78;20885;-80
2021/08/20 00:48:17;;;;;;;10.58;7.00;;;;;;;24.94;50.92;98880.59;2279928;78;20928;-79
2021/08/20 00:51:18;;;;;;;8.78;6.35;;;;;;;24.96;50.68;98883.19;2280239;78;20885;-80
2021/08/20 00:54:19;;;;;;;10.48;7.15;;;;;;;24.97;50.66;98886.25;2280676;78;20924;-80
2021/08/20 00:57:20;;;;;;;14.87;6.87;;;;;;;25.00;50.33;98880.34;2280640;78;20947;-80
2021/08/20 01:00:21;;;;;;;7.35;6.45;;;;;;;25.00;50.12;98878.13;2280376;78;20952;-79
2021/08/20 01:03:21;;;;;;;7.25;6.65;;;;;;;25.00;50.02;98878.13;2280455;78;21315;-79
2021/08/20 01:06:22;;;;;;;7.53;5.92;;;;;;;25.01;49.81;98877.20;2280782;78;20987;-79
2021/08/20 01:09:22;;;;;;;7.72;6.90;;;;;;;25.01;49.76;98878.53;2280680;78;20952;-80
2021/08/20 01:12:23;;;;;;;11.18;6.15;;;;;;;25.01;49.56;98891.41;2280441;78;20960;-79
2021/08/20 01:15:24;;;;;;;6.78;6.15;;;;;;;25.03;49.47;98883.33;2280169;78;20936;-78
2021/08/20 01:18:24;;;;;;;10.48;7.35;;;;;;;25.03;49.17;98880.66;2280501;78;20932;-79
2021/08/20 01:21:25;;;;;;;8.80;6.90;;;;;;;24.76;48.64;98890.30;2280840;78;20921;-80
2021/08/20 01:24:26;;;;;;;11.12;7.17;;;;;;;24.48;49.13;98883.12;2280945;78;20888;-79
2021/08/20 01:27:26;;;;;;;15.18;6.42;;;;;;;24.51;49.39;98888.31;2280814;78;20964;-79
2021/08/20 01:30:27;;;;;;;12.98;7.12;;;;;;;24.54;49.39;98888.19;2280038;78;20904;-80
2021/08/20 01:33:27;;;;;;;9.53;6.00;;;;;;;24.52;49.60;98884.72;2280079;78;20920;-79
2021/08/20 01:36:28;;;;;;;13.30;6.35;;;;;;;24.62;49.55;98886.05;2280232;78;20913;-79
2021/08/20 01:39:28;;;;;;;30.20;8.60;;;;;;;24.74;49.41;98882.83;2279714;78;20908;-79
2021/08/20 01:42:29;;;;;;;72.05;10.60;;;;;;;24.75;49.31;98880.55;2279710;78;21016;-79
2021/08/20 01:45:29;;;;;;;18.05;6.78;;;;;;;24.77;49.33;98878.69;2279745;78;20917;-79
2021/08/20 01:48:30;;;;;;;8.58;6.15;;;;;;;24.88;49.21;98875.99;2282808;78;20940;-79
2021/08/20 01:51:30;;;;;;;20.15;7.33;;;;;;;24.84;49.26;98877.07;2283313;77;20905;-79
2021/08/20 01:54:31;;;;;;;15.53;7.33;;;;;;;24.86;49.25;98874.73;2283169;77;20972;-79
2021/08/20 01:57:31;;;;;;;49.80;9.88;;;;;;;24.92;49.25;98878.45;2283505;77;20940;-81
2021/08/20 02:00:32;;;;;;;19.45;7.42;;;;;;;24.97;49.08;98875.57;2282016;77;20978;-80
2021/08/20 02:03:33;;;;;;;16.37;6.97;;;;;;;24.93;49.02;98884.66;2283154;78;20936;-81
2021/08/20 02:06:33;;;;;;;13.20;6.45;;;;;;;24.93;49.02;98884.66;2284085;78;21252;-81
2021/08/20 02:09:34;;;;;;;12.58;6.55;;;;;;;24.91;49.14;98884.73;2283863;77;20873;-81
2021/08/20 02:12:34;;;;;;;10.98;7.08;;;;;;;24.90;49.11;98885.66;2283604;77;21082;-81
2021/08/20 02:15:37;;;;;;;12.53;6.70;;;;;;;24.93;49.10;98885.53;2283841;77;20909;-78
2021/08/20 02:18:37;;;;;;;14.18;6.80;;;;;;;24.95;48.94;98893.47;2282706;78;20971;-81
2021/08/20 02:21:39;;;;;;;12.50;6.85;;;;;;;24.78;48.98;98883.09;2284074;77;20968;-81
2021/08/20 02:24:42;;;;;;;25.92;7.85;;;;;;;24.75;49.16;98882.36;2284032;78;20919;-81
2021/08/20 02:27:42;;;;;;;19.20;7.83;;;;;;;24.75;49.16;98879.22;2284254;77;21300;-81
2021/08/20 02:30:43;;;;;;;8.75;6.80;;;;;;;24.78;49.01;98879.08;2284046;78;20909;-81
2021/08/20 02:33:45;;;;;;;9.98;6.08;;;;;;;24.66;49.39;98875.63;2284286;77;20944;-81
2021/08/20 02:36:45;;;;;;;14.60;6.78;;;;;;;24.73;49.22;98880.23;2284381;78;20917;-80
2021/08/20 02:39:46;;;;;;;9.30;6.85;;;;;;;24.79;49.19;98879.95;2284317;77;20909;-81
2021/08/20 02:42:48;;;;;;;12.18;6.67;;;;;;;24.78;49.16;98870.20;2262874;78;20944;-81
2021/08/20 02:45:49;;;;;;;7.92;6.60;;;;;;;24.83;49.06;98873.53;2284342;78;20952;-81
2021/08/20 02:48:49;;;;;;;48.02;9.73;;;;;;;24.85;49.07;98875.67;2280208;77;20971;-81
2021/08/20 02:51:50;;;;;;;13.68;6.60;;;;;;;24.76;48.94;98880.95;2280922;78;20920;-80
2021/08/20 02:54:50;;;;;;;21.55;7.83;;;;;;;24.70;49.10;98875.03;2280877;78;20959;-79
2021/08/20 02:57:51;;;;;;;75.20;10.93;;;;;;;24.56;49.17;98875.64;2279701;78;20901;-79
2021/08/20 03:00:51;;;;;;;16.48;7.90;;;;;;;24.48;49.38;98881.78;2280204;78;20901;-79
2021/08/20 03:03:52;;;;;;;21.48;7.45;;;;;;;24.39;49.62;98880.85;2280993;78;20909;-80
2021/08/20 03:06:53;;;;;;;15.32;6.83;;;;;;;24.34;49.63;98876.19;2280591;78;20917;-80
2021/08/20 03:09:53;;;;;;;12.65;7.05;;;;;;;24.34;49.78;98878.38;2280763;78;20912;-81
2021/08/20 03:12:54;;;;;;;12.47;7.03;;;;;;;24.37;49.54;98884.05;2280088;78;20968;-79
2021/08/20 03:15:54;;;;;;;18.40;6.42;;;;;;;24.39;49.40;98882.19;2280640;78;20905;-80
2021/08/20 03:18:55;;;;;;;23.22;7.15;;;;;;;24.21;49.47;98880.25;2279798;78;21363;-81
2021/08/20 03:21:56;;;;;;;24.07;7.65;;;;;;;23.43;49.24;98882.97;2279454;78;20932;-80
2021/08/20 03:24:56;;;;;;;7.28;6.15;;;;;;;22.44;50.89;98884.41;2280027;78;20912;-81
2021/08/20 03:27:57;;;;;;;16.50;6.58;;;;;;;21.67;52.68;98882.55;2278714;78;20987;-80
2021/08/20 03:30:57;;;;;;;8.03;6.05;;;;;;;21.20;53.90;98888.41;2278937;78;20893;-80
2021/08/20 03:33:58;;;;;;;8.23;6.42;;;;;;;20.75;54.94;98886.61;2279492;78;20944;-81
2021/08/20 03:36:58;;;;;;;13.48;7.67;;;;;;;20.51;56.03;98889.50;2279632;78;20940;-79
2021/08/20 03:40:01;;;;;;;25.48;11.25;;;;;;;20.28;56.87;98887.89;2278714;78;21340;-83
2021/08/20 03:43:02;;;;;;;16.75;7.60;;;;;;;20.17;57.42;98885.52;2278381;78;21019;-81
2021/08/20 03:46:03;;;;;;;17.12;7.28;;;;;;;20.07;57.90;98891.97;2279505;78;20948;-82
2021/08/20 03:49:04;;;;;;;8.63;6.78;;;;;;;19.94;58.57;98891.41;2277776;78;21067;-80
2021/08/20 03:52:05;;;;;;;14.47;9.93;;;;;;;19.75;59.03;98890.55;2278533;78;20972;-81
2021/08/20 03:55:05;;;;;;;14.75;10.50;;;;;;;20.13;60.55;98896.24;2279287;78;20971;-80
2021/08/20 03:58:06;;;;;;;34.83;12.35;;;;;;;20.79;59.35;98894.90;2279144;78;20984;-80
2021/08/20 04:01:07;;;;;;;16.67;10.32;;;;;;;21.22;58.31;98898.98;2279512;78;20968;-80
2021/08/20 04:04:07;;;;;;;40.63;10.55;;;;;;;21.30;57.74;98898.31;2280113;78;20885;-81
2021/08/20 04:07:08;;;;;;;67.95;12.28;;;;;;;21.27;57.77;98909.90;2278938;78;20924;-80
2021/08/20 04:10:08;;;;;;;28.27;9.70;;;;;;;21.22;57.85;98909.17;2278897;78;20948;-80
2021/08/20 04:13:09;;;;;;;18.80;7.83;;;;;;;21.17;57.89;98909.73;2279333;78;21023;-81
2021/08/20 04:16:10;;;;;;;15.13;8.58;;;;;;;20.98;58.25;98913.84;2279697;78;20913;-81
2021/08/20 04:19:10;;;;;;;11.78;8.55;;;;;;;20.80;58.64;98914.34;2279928;78;20984;-80
2021/08/20 04:22:10;;;;;;;9.08;7.53;;;;;;;20.67;59.02;98912.48;2280286;78;20900;-80
2021/08/20 04:25:11;;;;;;;10.65;7.67;;;;;;;20.50;59.37;98917.38;2280504;78;20951;-79
2021/08/20 04:28:14;;;;;;;14.78;8.30;;;;;;;20.33;60.06;98917.34;2280416;78;21351;-81
2021/08/20 04:31:15;;;;;;;11.73;7.85;;;;;;;20.26;60.39;98918.87;2280193;78;20901;-81
2021/08/20 04:34:15;;;;;;;8.58;7.65;;;;;;;20.21;60.70;98917.66;2280066;78;20928;-81
2021/08/20 04:37:18;;;;;;;8.75;7.78;;;;;;;20.15;61.07;98922.25;2279156;78;21340;-80
2021/08/20 04:40:18;;;;;;;54.33;10.38;;;;;;;20.08;61.33;98928.61;2279139;78;20917;-79
2021/08/20 04:43:20;;;;;;;29.70;8.48;;;;;;;20.08;61.82;98931.27;2258653;78;21007;-80
2021/08/20 04:46:21;;;;;;;13.93;7.35;;;;;;;20.01;61.87;98931.88;2279844;78;20965;-79
2021/08/20 04:49:22;;;;;;;386.27;39.98;;;;;;;19.98;62.27;98931.50;2279652;78;20972;-79
2021/08/20 04:52:22;;;;;;;60.35;10.70;;;;;;;20.29;62.66;98927.61;2279269;78;20929;-79
2021/08/20 04:55:23;;;;;;;40.50;10.53;;;;;;;20.29;62.66;98927.61;2279614;78;20916;-81
2021/08/20 04:58:23;;;;;;;103.10;75.95;;;;;;;20.51;62.08;98929.73;2279548;78;20943;-80
2021/08/20 05:01:24;;;;;;;49.53;29.87;;;;;;;20.59;61.38;98938.34;2279465;78;20889;-81
2021/08/20 05:04:25;;;;;;;30.27;15.58;;;;;;;20.49;61.59;98936.86;2279457;78;20963;-79
2021/08/20 05:07:26;;;;;;;35.23;18.37;;;;;;;20.40;61.55;98932.66;2278880;78;21305;-78
2021/08/20 05:10:26;;;;;;;52.33;16.55;;;;;;;20.40;61.45;98943.72;2278871;78;20931;-79
2021/08/20 05:13:27;;;;;;;23.92;15.05;;;;;;;20.35;61.64;98940.70;2278435;78;21043;-79
2021/08/20 05:16:29;;;;;;;40.70;20.55;;;;;;;20.30;62.31;98943.06;2258845;78;20953;-80
2021/08/20 05:19:30;;;;;;;38.10;20.43;;;;;;;20.24;62.63;98937.92;2279929;78;20937;-80
2021/08/20 05:22:30;;;;;;;39.65;20.70;;;;;;;20.20;62.34;98938.45;2279122;78;20909;-80
2021/08/20 05:25:31;;;;;;;65.65;23.45;;;;;;;20.19;62.72;98940.69;2278167;78;21332;-80
2021/08/20 05:28:31;;;;;;;45.33;20.15;;;;;;;20.20;62.71;98929.17;2279172;78;20904;-80
2021/08/20 05:31:32;;;;;;;240.05;34.78;;;;;;;20.20;62.71;98929.17;2278312;78;20970;-80
2021/08/20 05:34:32;;;;;;;78.45;21.50;;;;;;;20.22;62.94;98937.95;2277784;78;20933;-79
2021/08/20 05:37:33;;;;;;;30.30;16.80;;;;;;;20.21;63.24;98940.19;2279099;78;20889;-80
2021/08/20 05:40:33;;;;;;;24.50;15.00;;;;;;;20.28;63.31;98944.42;2279208;78;21391;-81
2021/08/20 05:43:37;;;;;;;44.55;15.40;;;;;;;20.39;63.59;98944.60;2278738;78;20975;-79
2021/08/20 05:46:37;;;;;;;32.80;12.58;;;;;;;20.43;63.69;98947.17;2278892;78;20904;-80
2021/08/20 05:49:38;;;;;;;24.82;11.18;;;;;;;20.45;63.37;98951.10;2282865;78;20968;-81
2021/08/20 05:52:39;;;;;;;17.32;10.68;;;;;;;20.50;62.89;98952.72;2283351;78;20901;-81
2021/08/20 05:55:39;;;;;;;13.45;9.58;;;;;;;20.66;63.12;98954.05;2283078;78;20960;-80
2021/08/20 05:58:40;;;;;;;14.03;10.35;;;;;;;20.94;63.08;98954.19;2282809;78;20968;-78
2021/08/20 06:01:40;;;;;;;15.85;10.72;;;;;;;21.20;62.62;98952.11;2282730;77;20960;-81
2021/08/20 06:04:43;;;;;;;14.07;9.18;;;;;;;21.38;62.18;98954.71;2283291;77;21118;-82
2021/08/20 06:07:44;;;;;;;13.13;9.20;;;;;;;21.56;61.78;98955.94;2282076;77;20940;-81
2021/08/20 06:10:47;;;;;;;36.90;26.50;;;;;;;21.69;61.31;98956.00;2282524;77;20893;-81
2021/08/20 06:13:49;;;;;;;9.10;8.08;;;;;;;21.75;60.43;98958.92;2281992;78;21000;-81
2021/08/20 06:16:54;;;;;;;12.00;7.97;;;;;;;21.46;59.44;98951.36;2283241;78;20980;-80
2021/08/20 06:19:51;;;;;;;9.33;7.58;;;;;;;21.03;59.92;98949.08;2282355;78;20980;-82
2021/08/20 06:22:52;;;;;;;12.18;7.37;;;;;;;20.74;60.64;98951.19;2282511;78;21620;-80
2021/08/20 06:25:52;;;;;;;9.45;8.55;;;;;;;20.56;61.27;98950.36;2282524;77;20916;-79
2021/08/20 06:28:53;;;;;;;12.05;8.45;;;;;;;20.42;61.53;98954.70;2282939;77;20954;-81
2021/08/20 06:31:53;;;;;;;12.40;8.78;;;;;;;20.35;61.82;98951.31;2283189;78;20885;-81
2021/08/20 06:34:54;;;;;;;13.88;8.98;;;;;;;20.38;62.13;98956.12;2283457;78;21027;-81
2021/08/20 06:37:55;;;;;;;11.88;8.75;;;;;;;20.38;61.94;98947.70;2282590;78;20920;-81
2021/08/20 06:40:55;;;;;;;12.60;9.63;;;;;;;20.34;61.54;98952.22;2282225;77;20928;-83
2021/08/20 06:43:56;;;;;;;15.93;8.53;;;;;;;20.45;61.04;98955.08;2281856;77;21327;-80
2021/08/20 06:46:56;;;;;;;10.23;8.48;;;;;;;20.49;60.82;98953.63;2282072;77;21587;-81
2021/08/20 06:49:58;;;;;;;11.53;8.28;;;;;;;20.50;60.75;98960.67;2279067;78;20944;-79
2021/08/20 06:52:58;;;;;;;23.55;8.85;;;;;;;20.56;60.65;98956.53;2277912;78;21008;-79
2021/08/20 06:55:59;;;;;;;13.58;8.40;;;;;;;20.72;60.37;98958.77;2277983;78;20939;-83
2021/08/20 06:58:59;;;;;;;10.23;7.40;;;;;;;20.86;59.91;98954.86;2277678;78;20908;-80
2021/08/20 07:02:00;;;;;;;11.65;8.60;;;;;;;20.96;59.84;98951.49;2277129;78;20956;-79
2021/08/20 07:05:01;;;;;;;9.10;7.90;;;;;;;21.06;59.70;98960.06;2278018;78;20928;-80
2021/08/20 07:08:01;;;;;;;79.35;13.83;;;;;;;21.18;59.16;98957.92;2278104;78;20952;-80
2021/08/20 07:11:02;;;;;;;17.80;8.93;;;;;;;21.29;58.88;98958.52;2278098;78;20936;-81
2021/08/20 07:14:02;;;;;;;13.20;7.85;;;;;;;21.45;58.46;98960.25;2278157;78;20948;-81
2021/08/20 07:17:03;;;;;;;10.30;7.33;;;;;;;21.60;57.87;98958.91;2278020;78;21280;-78
2021/08/20 07:20:03;;;;;;;16.25;7.90;;;;;;;21.76;57.65;98959.34;2277809;78;21359;-81
2021/08/20 07:23:04;;;;;;;25.23;22.75;;;;;;;21.93;57.18;98960.53;2278946;78;20969;-80
2021/08/20 07:26:05;;;;;;;10.55;7.70;;;;;;;22.13;56.52;98958.59;2278127;78;20916;-80
2021/08/20 07:29:06;;;;;;;8.25;6.53;;;;;;;22.30;56.12;98962.02;2278925;78;20955;-81
2021/08/20 07:32:06;;;;;;;12.37;7.60;;;;;;;22.42;55.96;98960.73;2277923;78;20980;-80
2021/08/20 07:35:07;;;;;;;9.63;6.60;;;;;;;22.61;56.31;98961.86;2278768;78;20916;-82
2021/08/20 07:38:08;;;;;;;14.58;7.80;;;;;;;22.85;55.21;98951.71;2278621;78;20929;-80
2021/08/20 07:41:09;;;;;;;7.92;6.60;;;;;;;23.06;54.81;98955.84;2278237;78;21422;-79
2021/08/20 07:44:14;;;;;;;10.38;6.75;;;;;;;23.25;54.30;98955.56;2278043;78;20959;-81
2021/08/20 07:47:12;;;;;;;7.08;6.40;;;;;;;23.36;53.72;98960.48;2277747;78;20969;-80
2021/08/20 07:50:12;;;;;;;11.03;6.55;;;;;;;23.54;53.28;98962.94;2278265;78;21176;-79
2021/08/20 07:53:15;;;;;;;7.53;5.92;;;;;;;23.72;52.68;98961.78;2277698;78;20949;-80
2021/08/20 07:56:15;;;;;;;9.68;5.80;;;;;;;23.90;52.05;98965.52;2278038;78;21352;-80
2021/08/20 07:59:15;;;;;;;7.10;4.80;;;;;;;24.10;51.70;98965.57;2277808;78;20897;-80
2021/08/20 08:02:16;;;;;;;6.20;5.62;;;;;;;24.28;50.70;98963.14;2277958;78;20932;-80
2021/08/20 08:05:16;;;;;;;7.22;5.97;;;;;;;24.35;50.94;98968.62;2277516;78;20948;-80
2021/08/20 08:08:17;;;;;;;9.50;6.62;;;;;;;24.47;51.08;98961.42;2278078;78;21320;-79
2021/08/20 08:11:17;;;;;;;7.22;5.65;;;;;;;24.64;50.75;98961.57;2278213;78;21277;-80
2021/08/20 08:14:18;;;;;;;8.23;4.97;;;;;;;24.77;50.32;98966.77;2278549;78;20956;-82
2021/08/20 08:17:18;;;;;;;7.75;4.62;;;;;;;25.00;49.40;98974.27;2278314;78;20913;-81
2021/08/20 08:20:19;;;;;;;5.33;4.83;;;;;;;25.05;48.95;98965.58;2279069;78;20924;-81
2021/08/20 08:23:21;;;;;;;9.80;5.10;;;;;;;25.19;48.71;98967.19;2278689;78;20968;-80
2021/08/20 08:26:23;;;;;;;5.00;4.40;;;;;;;25.44;48.33;98967.40;2278254;78;20944;-80
2021/08/20 08:29:23;;;;;;;5.28;4.45;;;;;;;25.65;48.01;98967.73;2279172;78;20992;-81
2021/08/20 08:32:24;;;;;;;4.75;4.22;;;;;;;25.75;47.83;98969.05;2279405;78;20928;-82
2021/08/20 08:35:24;;;;;;;4.80;3.80;;;;;;;25.77;47.27;98966.31;2279364;78;20924;-82
2021/08/20 08:38:25;;;;;;;6.25;3.70;;;;;;;25.93;46.71;98969.50;2278841;78;20912;-81
2021/08/20 08:41:25;;;;;;;5.90;4.00;;;;;;;26.10;45.82;98967.38;2278814;78;20917;-80
2021/08/20 08:44:26;;;;;;;8.00;3.95;;;;;;;26.07;45.69;98962.17;2278372;78;20913;-81
2021/08/20 08:47:26;;;;;;;4.05;3.37;;;;;;;26.11;45.74;98965.09;2277894;78;20897;-81
2021/08/20 08:50:27;;;;;;;5.78;3.92;;;;;;;26.21;45.40;98971.72;2282002;78;20969;-80
2021/08/20 08:56:30;;;;;;;58.87;7.57;;;;;;;26.59;45.43;98965.80;2261059;78;20956;-81
2021/08/20 08:59:30;;;;;;;6.65;3.42;;;;;;;26.83;45.19;98966.34;2282101;78;21237;-82
2021/08/20 09:02:31;;;;;;;4.42;3.58;;;;;;;26.94;44.20;98968.02;2282115;77;21277;-81
2021/08/20 09:05:31;;;;;;;4.75;3.30;;;;;;;26.89;43.85;98966.05;2282318;78;20911;-81
2021/08/20 09:08:32;;;;;;;15.65;4.72;;;;;;;26.88;44.32;98976.84;2281684;77;20970;-82
2021/08/20 09:11:33;;;;;;;5.78;3.60;;;;;;;26.98;43.85;98974.11;2282217;78;20955;-82
2021/08/20 09:14:33;;;;;;;7.50;4.40;;;;;;;26.90;44.36;98973.61;2281366;77;20982;-82
2021/08/20 09:17:35;;;;;;;7.53;4.05;;;;;;;27.00;43.69;98970.88;2282195;77;20968;-80
2021/08/20 09:20:36;;;;;;;4.05;3.67;;;;;;;27.13;43.67;98973.30;2281565;77;21296;-81
2021/08/20 09:23:37;;;;;;;9.38;3.83;;;;;;;27.26;43.35;98978.38;2281671;78;21329;-81
2021/08/20 09:26:37;;;;;;;10.40;4.35;;;;;;;27.26;43.10;98981.54;2281537;77;20943;-81
2021/08/20 09:29:38;;;;;;;17.92;4.35;;;;;;;27.29;43.54;98975.54;2281813;77;20916;-81
2021/08/20 09:32:38;;;;;;;8.58;4.53;;;;;;;27.35;43.04;98976.16;2282043;77;20920;-84
2021/08/20 09:35:39;;;;;;;23.32;4.65;;;;;;;27.35;42.64;98976.16;2281610;78;20920;-81
2021/08/20 09:38:40;;;;;;;12.23;3.67;;;;;;;27.41;42.37;98974.48;2281668;78;20924;-81
2021/08/20 09:41:44;;;;;;;6.25;3.90;;;;;;;27.55;41.81;98969.23;2282332;77;20943;-80
2021/08/20 09:44:43;;;;;;;4.23;3.63;;;;;;;27.67;41.60;98969.05;2282678;78;21372;-80
2021/08/20 09:47:44;;;;;;;7.50;3.47;;;;;;;27.66;41.88;98960.14;2281388;78;20912;-81
2021/08/20 09:50:44;;;;;;;3.77;3.35;;;;;;;27.71;41.65;98965.25;2277660;78;20996;-80
2021/08/20 09:53:45;;;;;;;4.92;3.65;;;;;;;27.80;41.87;98960.27;2278279;78;20951;-80
2021/08/20 09:56:45;;;;;;;5.75;3.50;;;;;;;27.99;41.43;98960.56;2278991;78;20888;-80
2021/08/20 09:59:46;;;;;;;7.42;3.70;;;;;;;28.03;41.36;98952.72;2277754;78;20901;-81
2021/08/20 10:02:46;;;;;;;5.60;3.47;;;;;;;27.98;41.51;98960.17;2278349;78;21351;-81
2021/08/20 10:05:49;;;;;;;14.07;4.35;;;;;;;27.94;41.26;98955.93;2278628;78;21241;-80
2021/08/20 10:08:49;;;;;;;4.42;3.15;;;;;;;27.95;41.38;98952.30;2278275;78;20893;-80
2021/08/20 10:11:50;;;;;;;3.30;3.00;;;;;;;28.01;41.19;98949.27;2278063;78;20948;-79
2021/08/20 10:14:50;;;;;;;6.70;3.15;;;;;;;28.05;40.78;98942.29;2277641;78;20944;-80
2021/08/20 10:17:51;;;;;;;16.77;4.55;;;;;;;28.20;41.07;98947.24;2277312;78;20944;-79
2021/08/20 10:20:51;;;;;;;10.65;4.17;;;;;;;28.31;40.85;98944.83;2276199;78;20916;-79
2021/08/20 10:23:52;;;;;;;6.97;3.98;;;;;;;28.52;40.83;98943.55;2277100;78;20917;-78
2021/08/20 10:26:54;;;;;;;10.90;7.08;;;;;;;28.37;39.85;98936.89;2277241;78;20885;-77
2021/08/20 10:29:55;;;;;;;14.05;5.25;;;;;;;28.23;39.93;98935.02;2276619;78;20909;-78
2021/08/20 10:32:55;;;;;;;11.40;4.30;;;;;;;28.15;40.19;98934.09;2277235;78;21367;-78
2021/08/20 10:35:56;;;;;;;34.92;6.40;;;;;;;28.03;40.78;98926.75;2277172;78;21321;-79
2021/08/20 10:38:57;;;;;;;12.58;4.80;;;;;;;28.19;40.15;98924.05;2276415;78;20893;-78
2021/08/20 10:41:58;;;;;;;27.62;5.87;;;;;;;28.11;39.83;98923.16;2276075;78;21014;-77
2021/08/20 10:44:58;;;;;;;6.00;4.65;;;;;;;27.93;40.15;98917.98;2275660;78;20952;-77
2021/08/20 10:47:59;;;;;;;5.37;4.40;;;;;;;27.78;40.68;98924.62;2274990;78;20920;-78
2021/08/20 10:50:59;;;;;;;9.08;5.20;;;;;;;27.41;40.62;98917.72;2279623;77;20920;-78
2021/08/20 10:54:00;;;;;;;8.20;5.67;;;;;;;27.32;41.63;98920.04;2280773;78;21423;-78
2021/08/20 10:57:00;;;;;;;8.30;4.10;;;;;;;27.28;41.58;98918.87;2280528;77;20900;-78
2021/08/20 11:00:01;;;;;;;11.18;5.78;;;;;;;27.41;41.45;98919.53;2280140;78;20931;-78
2021/08/20 11:03:02;;;;;;;10.58;4.62;;;;;;;27.50;41.56;98917.20;2280187;77;20881;-79
2021/08/20 11:06:02;;;;;;;12.00;5.83;;;;;;;27.62;41.85;98925.06;2280803;77;20928;-78
2021/08/20 11:09:02;;;;;;;9.88;5.62;;;;;;;27.82;41.42;98913.24;2279847;77;20905;-78
2021/08/20 11:12:03;;;;;;;17.98;6.58;;;;;;;28.03;41.32;98918.70;2281065;77;20916;-78
2021/08/20 11:15:04;;;;;;;11.68;7.62;;;;;;;28.09;40.93;98914.80;2280817;78;20944;-79
2021/08/20 11:18:04;;;;;;;8.40;5.15;;;;;;;28.27;40.57;98912.41;2280231;77;20908;-78
2021/08/20 11:24:07;;;;;;;26.30;7.33;;;;;;;28.30;40.62;98913.57;2259909;78;20980;-78
2021/08/20 11:27:08;;;;;;;15.30;6.25;;;;;;;28.23;40.34;98904.16;2280688;78;20869;-78
2021/08/20 11:30:08;;;;;;;22.17;6.08;;;;;;;28.18;40.44;98899.50;2281209;78;20949;-78
2021/08/20 11:33:09;;;;;;;10.13;5.28;;;;;;;28.19;39.68;98908.80;2281079;77;20983;-79
2021/08/20 11:36:12;;;;;;;7.33;5.53;;;;;;;28.27;39.48;98904.36;2281060;77;20951;-80
2021/08/20 11:39:12;;;;;;;7.20;5.55;;;;;;;28.37;39.54;98901.52;2281197;78;20957;-79
2021/08/20 11:42:12;;;;;;;11.55;5.60;;;;;;;28.57;39.42;98904.82;2281962;78;21281;-79
2021/08/20 11:45:13;;;;;;;5.60;4.55;;;;;;;28.58;39.62;98902.05;2281549;77;20876;-81
2021/08/20 11:48:13;;;;;;;35.83;6.67;;;;;;;28.69;39.35;98898.73;2281971;77;20889;-80
2021/08/20 11:51:14;;;;;;;6.87;4.67;;;;;;;28.71;38.98;98898.16;2278394;78;20959;-79
2021/08/20 11:54:16;;;;;;;9.10;5.03;;;;;;;28.84;38.93;98896.48;2277718;78;20948;-80
2021/08/20 11:57:17;;;;;;;14.38;4.40;;;;;;;28.73;38.06;98893.08;2278740;78;21348;-80
2021/08/20 12:00:17;;;;;;;14.68;4.42;;;;;;;28.87;37.44;98890.92;2277486;78;21332;-79
2021/08/20 12:03:18;;;;;;;25.05;5.92;;;;;;;28.94;37.10;98886.03;2277831;78;20952;-80
2021/08/20 12:06:18;;;;;;;12.68;4.00;;;;;;;29.11;36.80;98885.35;2277405;78;20925;-79
2021/08/20 12:09:19;;;;;;;6.00;3.75;;;;;;;29.10;36.55;98889.48;2277153;78;20947;-79
2021/08/20 12:12:20;;;;;;;6.47;3.62;;;;;;;28.93;36.75;98887.85;2277069;78;20939;-78
2021/08/20 12:15:20;;;;;;;7.12;3.80;;;;;;;28.68;37.53;98887.13;2276521;78;20983;-79
2021/08/20 12:18:21;;;;;;;4.30;3.27;;;;;;;28.68;37.84;98883.58;2277296;78;20927;-78
2021/08/20 12:21:21;;;;;;;5.40;3.75;;;;;;;28.80;37.10;98882.83;2277029;78;20948;-79
2021/08/20 12:24:22;;;;;;;13.58;5.45;;;;;;;28.82;37.35;98881.77;2277296;78;20923;-78
2021/08/20 12:27:22;;;;;;;5.20;3.85;;;;;;;28.98;36.96;98880.84;2278286;78;20955;-80
2021/08/20 12:30:23;;;;;;;4.00;3.60;;;;;;;28.96;37.09;98879.59;2278606;78;20951;-79
2021/08/20 12:37:11;;;;;;;4.80;3.52;;;;;;;29.11;36.24;98881.80;2237917;79;22518;-79
2021/08/20 12:40:11;;;;;;;6.28;3.35;;;;;;;28.85;36.68;98888.80;2189378;81;20964;-80
2021/08/20 12:43:12;;;;;;;8.00;3.60;;;;;;;28.70;36.74;98883.87;2189793;81;21018;-80
2021/08/20 12:46:13;;;;;;;6.22;3.95;;;;;;;28.70;37.09;98880.32;2190255;81;20968;-79
2021/08/20 12:49:20;;;;;;;8.30;4.00;;;;;;;28.72;37.08;98873.03;2188924;81;21370;-77
2021/08/20 12:52:20;;;;;;;8.25;4.40;;;;;;;28.64;37.46;98872.64;2188912;81;21019;-77
2021/08/20 12:55:21;;;;;;;5.35;4.08;;;;;;;28.64;37.30;98869.95;2189020;81;21023;-78
2021/08/20 12:58:21;;;;;;;4.92;4.45;;;;;;;28.40;36.63;98863.75;2189555;81;21311;-78
2021/08/20 13:01:21;;;;;;;6.10;3.95;;;;;;;28.37;36.91;98865.75;2189471;81;20991;-77
2021/08/20 13:04:22;;;;;;;4.17;3.72;;;;;;;28.17;36.94;98858.86;2189080;80;20998;-78
2021/08/20 13:07:22;;;;;;;3.80;3.50;;;;;;;28.03;37.54;98856.13;2189001;81;21000;-80
2021/08/20 13:10:23;;;;;;;6.42;3.58;;;;;;;27.96;37.96;98858.79;2189423;81;20956;-79
2021/08/20 13:13:23;;;;;;;8.40;4.20;;;;;;;27.64;37.75;98861.49;2188785;81;21015;-79
2021/08/20 13:16:24;;;;;;;17.75;5.05;;;;;;;27.55;38.70;98855.28;2189025;81;21063;-79
2021/08/20 13:19:24;;;;;;;5.90;3.70;;;;;;;27.75;38.54;98853.72;2188863;80;21722;-78
2021/08/20 13:22:26;;;;;;;4.25;3.50;;;;;;;27.82;38.78;98857.78;2189211;81;20940;-78
2021/08/20 13:25:26;;;;;;;6.78;4.17;;;;;;;27.81;38.43;98853.84;2189747;81;21383;-79
2021/08/20 13:28:29;;;;;;;6.83;4.08;;;;;;;27.66;38.12;98854.70;2170005;81;20979;-78
2021/08/20 13:31:29;;;;;;;8.75;6.62;;;;;;;27.62;38.71;98848.65;2189895;81;20988;-79
2021/08/20 13:34:30;;;;;;;7.60;3.62;;;;;;;27.78;38.16;98850.00;2189605;81;20992;-79
2021/08/20 13:37:30;;;;;;;3.45;3.15;;;;;;;27.93;38.19;98857.63;2173791;82;20996;-79
2021/08/20 13:40:31;;;;;;;3.60;2.95;;;;;;;27.78;38.23;98854.89;2173465;82;20973;-81
2021/08/20 13:43:33;;;;;;;5.83;3.30;;;;;;;27.67;38.32;98859.97;2174135;81;20960;-79
2021/08/20 13:46:35;;;;;;;3.73;3.37;;;;;;;27.48;38.40;98852.09;2130256;83;21389;-79
2021/08/20 13:49:36;;;;;;;4.67;3.17;;;;;;;27.37;39.08;98854.98;2130239;84;21008;-79
2021/08/20 13:52:37;;;;;;;4.78;3.40;;;;;;;27.22;39.22;98856.23;2129158;84;21442;-78
2021/08/20 13:55:38;;;;;;;4.25;3.10;;;;;;;27.10;39.52;98856.05;2129418;84;20976;-79
2021/08/20 13:58:40;;;;;;;3.70;2.83;;;;;;;26.90;40.00;98850.41;2129145;84;20964;-79
2021/08/20 14:01:41;;;;;;;8.63;3.27;;;;;;;26.86;40.23;98850.16;2174309;81;21020;-78
2021/08/20 14:04:42;;;;;;;3.77;3.10;;;;;;;26.84;40.60;98848.03;2173013;81;21071;-79
2021/08/20 14:07:42;;;;;;;4.17;3.10;;;;;;;26.66;40.71;98849.89;2173139;81;20952;-80
2021/08/20 14:10:42;;;;;;;6.10;3.05;;;;;;;26.63;40.83;98850.92;2173949;81;21335;-79